createdAt,value
2016-04-22T00:00:04.035Z,12.22
2016-04-22T00:01:04.038Z,12.18
2016-04-22T00:02:04.057Z,12.17
2016-04-22T00:03:04.028Z,12.22
2016-04-22T00:04:04.040Z,12.2
2016-04-22T00:05:04.042Z,12.09
2016-04-22T00:06:04.014Z,12.06
2016-04-22T00:07:04.048Z,12.15
2016-04-22T00:08:04.036Z,12.15
2016-04-22T00:09:04.038Z,12.15
2016-04-22T00:10:04.041Z,12.15
2016-04-22T00:11:04.044Z,12.12
2016-04-22T00:12:04.030Z,12.13
2016-04-22T00:13:04.017Z,12.21
2016-04-22T00:14:04.020Z,12.21
2016-04-22T00:15:03.883Z,12.2
2016-04-22T00:16:04.057Z,12.18
2016-04-22T00:17:04.060Z,12.13
2016-04-22T00:18:04.030Z,12.2
2016-04-22T00:19:04.019Z,12.22
2016-04-22T00:20:04.411Z,12.13
2016-04-22T00:21:04.024Z,12.18
2016-04-22T00:22:04.057Z,12.17
2016-04-22T00:23:04.044Z,12.13
2016-04-22T00:24:04.016Z,12.07
2016-04-22T00:25:04.035Z,12.12
2016-04-22T00:26:04.021Z,12.1
2016-04-22T00:27:04.040Z,12.18
2016-04-22T00:28:03.871Z,12.13
2016-04-22T00:29:04.029Z,12.1
2016-04-22T00:30:04.016Z,12.12
2016-04-22T00:31:04.051Z,12.12
2016-04-22T00:32:04.022Z,12.1
2016-04-22T00:33:04.040Z,11.97
2016-04-22T00:34:04.027Z,12
2016-04-22T00:35:04.029Z,12
2016-04-22T00:36:04.033Z,11.97
2016-04-22T00:37:04.052Z,11.97
2016-04-22T00:38:04.024Z,11.88
2016-04-22T00:39:04.042Z,11.87
2016-04-22T00:40:04.029Z,11.84
2016-04-22T00:41:04.032Z,11.88
2016-04-22T00:42:04.035Z,11.84
2016-04-22T00:43:04.021Z,11.97
2016-04-22T00:44:04.039Z,11.97
2016-04-22T00:45:04.027Z,11.86
2016-04-22T00:46:04.029Z,11.88
2016-04-22T00:47:04.032Z,11.87
2016-04-22T00:48:04.034Z,11.88
2016-04-22T00:49:04.037Z,11.86
2016-04-22T00:50:04.039Z,11.86
2016-04-22T00:51:04.043Z,11.77
2016-04-22T00:52:04.029Z,11.86
2016-04-22T00:53:04.032Z,11.81
2016-04-22T00:54:04.020Z,11.81
2016-04-22T00:55:04.038Z,11.81
2016-04-22T00:56:04.040Z,11.77
2016-04-22T00:57:04.027Z,11.69
2016-04-22T00:58:04.030Z,11.77
2016-04-22T00:59:04.048Z,11.68
2016-04-22T01:00:04.036Z,11.66
2016-04-22T01:01:04.038Z,11.66
2016-04-22T01:02:04.041Z,11.73
2016-04-22T01:03:04.043Z,11.69
2016-04-22T01:04:04.030Z,11.65
2016-04-22T01:05:04.049Z,11.6
2016-04-22T01:06:04.036Z,11.62
2016-04-22T01:07:04.038Z,11.66
2016-04-22T01:08:04.041Z,11.6
2016-04-22T01:09:04.013Z,11.55
2016-04-22T01:10:04.031Z,11.59
2016-04-22T01:11:04.049Z,11.6
2016-04-22T01:12:04.037Z,11.52
2016-04-22T01:13:04.040Z,11.51
2016-04-22T01:14:04.057Z,11.52
2016-04-22T01:15:04.045Z,11.51
2016-04-22T01:16:04.032Z,11.5
2016-04-22T01:17:04.034Z,11.5
2016-04-22T01:18:04.053Z,11.48
2016-04-22T01:19:04.071Z,11.48
2016-04-22T01:20:03.292Z,11.4
2016-04-22T01:21:04.045Z,11.5
2016-04-22T01:22:04.032Z,11.41
2016-04-22T01:23:04.020Z,11.41
2016-04-22T01:24:04.053Z,11.37
2016-04-22T01:25:04.040Z,11.37
2016-04-22T01:26:04.043Z,11.33
2016-04-22T01:27:04.045Z,11.33
2016-04-22T01:28:04.048Z,11.33
2016-04-22T01:29:04.036Z,11.32
2016-04-22T01:30:04.038Z,11.27
2016-04-22T01:31:04.056Z,11.35
2016-04-22T01:32:04.059Z,11.29
2016-04-22T01:33:04.014Z,11.3
2016-04-22T01:34:04.033Z,11.29
2016-04-22T01:35:04.020Z,11.27
2016-04-22T01:36:04.023Z,11.17
2016-04-22T01:37:04.057Z,11.18
2016-04-22T01:38:04.044Z,11.18
2016-04-22T01:39:04.047Z,11.15
2016-04-22T01:40:04.018Z,11.12
2016-04-22T01:41:04.068Z,11.14
2016-04-22T01:42:04.024Z,11.07
2016-04-22T01:43:04.027Z,11.04
2016-04-22T01:44:04.013Z,10.94
2016-04-22T01:45:04.047Z,11
2016-04-22T01:46:04.018Z,10.92
2016-04-22T01:47:04.006Z,10.84
2016-04-22T01:48:04.024Z,10.76
2016-04-22T01:49:04.012Z,10.72
2016-04-22T01:50:04.014Z,10.71
2016-04-22T01:51:04.017Z,10.57
2016-04-22T01:52:04.020Z,10.54
2016-04-22T01:53:04.022Z,10.54
2016-04-22T01:54:04.025Z,10.51
2016-04-22T01:55:04.028Z,10.59
2016-04-22T01:56:04.031Z,10.53
2016-04-22T01:57:04.017Z,10.48
2016-04-22T01:58:04.020Z,10.48
2016-04-22T01:59:04.022Z,10.46
2016-04-22T02:00:04.025Z,10.49
2016-04-22T02:01:04.028Z,10.49
2016-04-22T02:02:04.031Z,10.38
2016-04-22T02:03:04.017Z,10.37
2016-04-22T02:04:04.005Z,10.46
2016-04-22T02:05:04.023Z,10.37
2016-04-22T02:06:03.853Z,10.44
2016-04-22T02:07:03.997Z,10.42
2016-04-22T02:08:04.000Z,10.46
2016-04-22T02:09:04.034Z,10.46
2016-04-22T02:10:03.989Z,10.51
2016-04-22T02:11:03.992Z,10.51
2016-04-22T02:12:04.027Z,10.46
2016-04-22T02:13:04.060Z,10.46
2016-04-22T02:14:04.000Z,10.42
2016-04-22T02:15:03.988Z,10.4
2016-04-22T02:16:03.990Z,10.31
2016-04-22T02:17:03.993Z,10.38
2016-04-22T02:18:03.980Z,10.33
2016-04-22T02:19:04.013Z,10.38
2016-04-22T02:20:04.016Z,10.34
2016-04-22T02:21:03.988Z,10.34
2016-04-22T02:22:03.976Z,10.38
2016-04-22T02:23:03.993Z,10.37
2016-04-22T02:24:03.996Z,10.38
2016-04-22T02:25:03.998Z,10.34
2016-04-22T02:26:03.986Z,10.41
2016-04-22T02:27:03.989Z,10.48
2016-04-22T02:28:03.992Z,10.4
2016-04-22T02:29:03.994Z,10.42
2016-04-22T02:30:03.981Z,10.38
2016-04-22T02:31:04.000Z,10.41
2016-04-22T02:32:04.002Z,10.54
2016-04-22T02:33:03.989Z,10.54
2016-04-22T02:34:04.007Z,10.46
2016-04-22T02:35:03.994Z,10.42
2016-04-22T02:36:03.997Z,10.54
2016-04-22T02:37:03.234Z,10.57
2016-04-22T02:38:03.986Z,10.53
2016-04-22T02:39:03.958Z,10.48
2016-04-22T02:40:03.961Z,10.53
2016-04-22T02:41:03.963Z,10.57
2016-04-22T02:42:03.982Z,10.59
2016-04-22T02:43:03.844Z,10.54
2016-04-22T02:44:03.956Z,10.57
2016-04-22T02:45:03.974Z,10.51
2016-04-22T02:46:03.961Z,10.41
2016-04-22T02:47:03.963Z,10.37
2016-04-22T02:48:03.982Z,10.33
2016-04-22T02:49:03.954Z,10.34
2016-04-22T02:50:03.971Z,10.31
2016-04-22T02:51:03.943Z,10.28
2016-04-22T02:52:03.977Z,10.3
2016-04-22T02:53:03.949Z,10.35
2016-04-22T02:54:03.967Z,10.22
2016-04-22T02:55:03.954Z,10.26
2016-04-22T02:56:03.941Z,10.26
2016-04-22T02:57:03.945Z,10.33
2016-04-22T02:58:03.823Z,10.31
2016-04-22T02:59:03.933Z,10.25
2016-04-22T03:00:03.953Z,10.19
2016-04-22T03:01:03.939Z,10.19
2016-04-22T03:02:03.942Z,10.16
2016-04-22T03:03:03.929Z,10.13
2016-04-22T03:04:03.947Z,10.09
2016-04-22T03:05:03.950Z,10.05
2016-04-22T03:06:03.968Z,10.16
2016-04-22T03:07:03.955Z,10.09
2016-04-22T03:08:03.942Z,10.17
2016-04-22T03:09:03.944Z,10.17
2016-04-22T03:10:03.932Z,10.19
2016-04-22T03:11:03.919Z,10.15
2016-04-22T03:12:03.938Z,10.09
2016-04-22T03:13:03.784Z,10.05
2016-04-22T03:14:03.927Z,10.05
2016-04-22T03:15:03.930Z,9.92
2016-04-22T03:16:03.917Z,10.02
2016-04-22T03:17:03.216Z,9.87
2016-04-22T03:18:03.954Z,9.92
2016-04-22T03:19:03.941Z,9.91
2016-04-22T03:20:03.912Z,9.92
2016-04-22T03:21:03.915Z,9.89
2016-04-22T03:22:03.933Z,9.89
2016-04-22T03:23:03.904Z,9.8
2016-04-22T03:24:03.923Z,9.92
2016-04-22T03:25:03.910Z,9.91
2016-04-22T03:26:03.913Z,9.83
2016-04-22T03:27:03.901Z,9.8
2016-04-22T03:28:03.934Z,9.8
2016-04-22T03:29:03.906Z,9.89
2016-04-22T03:30:03.908Z,9.89
2016-04-22T03:31:03.895Z,9.86
2016-04-22T03:32:03.914Z,9.86
2016-04-22T03:33:03.916Z,9.86
2016-04-22T03:34:03.887Z,9.87
2016-04-22T03:35:03.889Z,9.77
2016-04-22T03:36:03.908Z,9.76
2016-04-22T03:37:03.895Z,9.77
2016-04-22T03:38:03.897Z,9.82
2016-04-22T03:39:03.886Z,9.8
2016-04-22T03:40:03.888Z,9.72
2016-04-22T03:41:03.906Z,9.72
2016-04-22T03:42:03.878Z,9.76
2016-04-22T03:43:03.896Z,9.69
2016-04-22T03:44:03.883Z,9.76
2016-04-22T03:45:03.902Z,9.68
2016-04-22T03:46:03.872Z,9.68
2016-04-22T03:47:03.907Z,9.65
2016-04-22T03:48:03.894Z,9.61
2016-04-22T03:49:03.865Z,9.62
2016-04-22T03:50:03.899Z,9.64
2016-04-22T03:51:03.854Z,9.65
2016-04-22T03:52:03.857Z,9.65
2016-04-22T03:53:03.860Z,9.65
2016-04-22T03:54:03.848Z,9.62
2016-04-22T03:55:03.882Z,9.62
2016-04-22T03:56:03.854Z,9.55
2016-04-22T03:57:03.871Z,9.58
2016-04-22T03:58:03.874Z,9.48
2016-04-22T03:59:03.861Z,9.58
2016-04-22T04:00:03.848Z,9.56
2016-04-22T04:01:03.851Z,9.56
2016-04-22T04:02:03.837Z,9.55
2016-04-22T04:03:03.840Z,9.54
2016-04-22T04:04:03.842Z,9.61
2016-04-22T04:05:03.845Z,9.61
2016-04-22T04:06:03.848Z,9.56
2016-04-22T04:07:03.835Z,9.56
2016-04-22T04:08:03.839Z,9.5
2016-04-22T04:09:03.841Z,9.54
2016-04-22T04:10:03.859Z,9.46
2016-04-22T04:11:03.847Z,9.44
2016-04-22T04:12:03.817Z,9.46
2016-04-22T04:13:03.836Z,9.47
2016-04-22T04:14:03.838Z,9.48
2016-04-22T04:15:03.825Z,9.41
2016-04-22T04:16:03.813Z,9.41
2016-04-22T04:17:03.815Z,9.44
2016-04-22T04:18:03.849Z,9.5
2016-04-22T04:19:03.821Z,9.41
2016-04-22T04:20:03.823Z,9.5
2016-04-22T04:21:03.810Z,9.43
2016-04-22T04:22:03.657Z,9.46
2016-04-22T04:23:03.846Z,9.37
2016-04-22T04:24:03.856Z,9.39
2016-04-22T04:25:03.914Z,9.48
2016-04-22T04:26:03.955Z,9.48
2016-04-22T04:27:03.997Z,9.43
2016-04-22T04:28:04.013Z,9.39
2016-04-22T04:29:04.014Z,9.4
2016-04-22T04:30:04.048Z,9.41
2016-04-22T04:31:04.048Z,9.44
2016-04-22T04:32:04.081Z,9.46
2016-04-22T04:33:04.047Z,9.55
2016-04-22T04:34:04.086Z,9.55
2016-04-22T04:35:04.063Z,9.55
2016-04-22T04:36:04.070Z,9.65
2016-04-22T04:37:04.079Z,9.61
2016-04-22T04:38:04.099Z,9.73
2016-04-22T04:39:04.089Z,9.73
2016-04-22T04:40:04.078Z,9.74
2016-04-22T04:41:04.066Z,9.8
2016-04-22T04:42:04.103Z,9.84
2016-04-22T04:43:04.075Z,9.91
2016-04-22T04:44:04.094Z,9.91
2016-04-22T04:45:04.081Z,9.91
2016-04-22T04:46:04.069Z,9.92
2016-04-22T04:47:04.072Z,10.04
2016-04-22T04:48:04.075Z,10.01
2016-04-22T04:49:04.094Z,9.98
2016-04-22T04:50:04.082Z,10.05
2016-04-22T04:51:04.132Z,10.15
2016-04-22T04:52:04.057Z,10.22
2016-04-22T04:53:04.060Z,10.28
2016-04-22T04:54:04.078Z,10.37
2016-04-22T04:55:04.065Z,10.6
2016-04-22T04:56:04.068Z,10.67
2016-04-22T04:57:04.070Z,10.86
2016-04-22T04:58:04.073Z,10.97
2016-04-22T04:59:04.060Z,11.18
2016-04-22T05:00:04.062Z,11.36
2016-04-22T05:01:04.065Z,11.41
2016-04-22T05:02:04.162Z,11.6
2016-04-22T05:03:04.054Z,11.78
2016-04-22T05:04:04.057Z,11.83
2016-04-22T05:05:04.076Z,12.03
2016-04-22T05:06:04.048Z,12.13
2016-04-22T05:07:04.051Z,12.22
2016-04-22T05:08:04.053Z,12.32
2016-04-22T05:09:04.071Z,12.39
2016-04-22T05:10:04.074Z,12.42
2016-04-22T05:11:04.062Z,12.49
2016-04-22T05:12:04.049Z,12.47
2016-04-22T05:13:04.067Z,12.47
2016-04-22T05:14:04.070Z,12.55
2016-04-22T05:15:04.057Z,12.49
2016-04-22T05:16:04.060Z,12.55
2016-04-22T05:17:04.062Z,12.58
2016-04-22T05:18:04.081Z,12.68
2016-04-22T05:19:04.068Z,12.76
2016-04-22T05:20:04.071Z,12.79
2016-04-22T05:21:04.089Z,12.83
2016-04-22T05:22:04.045Z,12.79
2016-04-22T05:23:04.095Z,12.82
2016-04-22T05:24:04.081Z,12.79
2016-04-22T05:25:04.084Z,12.67
2016-04-22T05:26:04.070Z,12.83
2016-04-22T05:27:04.089Z,12.78
2016-04-22T05:28:04.092Z,12.83
2016-04-22T05:29:04.064Z,12.79
2016-04-22T05:30:04.097Z,12.79
2016-04-22T05:31:04.084Z,12.78
2016-04-22T05:32:04.072Z,12.72
2016-04-22T05:33:04.105Z,12.72
2016-04-22T05:34:04.092Z,12.68
2016-04-22T05:35:04.095Z,12.67
2016-04-22T05:36:04.097Z,12.8
2016-04-22T05:37:04.100Z,12.95
2016-04-22T05:38:04.088Z,12.95
2016-04-22T05:39:04.106Z,13.03
2016-04-22T05:40:04.094Z,13
2016-04-22T05:41:04.095Z,13.09
2016-04-22T05:42:04.114Z,13.15
2016-04-22T05:43:04.116Z,13.27
2016-04-22T05:44:03.948Z,13.42
2016-04-22T05:45:04.107Z,13.57
2016-04-22T05:46:04.140Z,13.7
2016-04-22T05:47:04.112Z,13.87
2016-04-22T05:48:04.115Z,13.96
2016-04-22T05:49:04.117Z,14.14
2016-04-22T05:50:04.120Z,14.29
2016-04-22T05:51:04.122Z,14.37
2016-04-22T05:52:04.125Z,14.2
2016-04-22T05:53:04.143Z,14.2
2016-04-22T05:54:04.130Z,14
2016-04-22T05:55:04.117Z,14
2016-04-22T05:56:04.136Z,13.9
2016-04-22T05:57:04.139Z,13.74
2016-04-22T05:58:04.125Z,13.68
2016-04-22T05:59:04.129Z,13.57
2016-04-22T06:00:04.131Z,13.59
2016-04-22T06:01:04.165Z,13.52
2016-04-22T06:02:04.152Z,13.49
2016-04-22T06:03:04.139Z,13.49
2016-04-22T06:04:04.158Z,13.47
2016-04-22T06:05:04.130Z,13.44
2016-04-22T06:06:04.163Z,13.59
2016-04-22T06:07:04.166Z,13.57
2016-04-22T06:08:04.153Z,13.59
2016-04-22T06:09:04.156Z,13.57
2016-04-22T06:10:04.157Z,13.52
2016-04-22T06:11:04.160Z,13.67
2016-04-22T06:12:04.163Z,13.65
2016-04-22T06:13:04.182Z,13.53
2016-04-22T06:14:04.168Z,13.53
2016-04-22T06:15:04.157Z,13.52
2016-04-22T06:16:04.173Z,13.44
2016-04-22T06:17:04.161Z,13.56
2016-04-22T06:18:04.179Z,13.72
2016-04-22T06:19:04.198Z,13.87
2016-04-22T06:20:04.184Z,14.11
2016-04-22T06:21:04.172Z,14.48
2016-04-22T06:22:04.206Z,14.62
2016-04-22T06:23:04.192Z,14.85
2016-04-22T06:24:04.180Z,15
2016-04-22T06:25:04.198Z,14.94
2016-04-22T06:26:04.217Z,15.04
2016-04-22T06:27:04.204Z,14.99
2016-04-22T06:28:04.206Z,15.06
2016-04-22T06:29:04.209Z,15.14
2016-04-22T06:30:04.211Z,15.36
2016-04-22T06:31:04.246Z,15.76
2016-04-22T06:32:04.233Z,16.15
2016-04-22T06:33:04.220Z,16.39
2016-04-22T06:34:04.223Z,16.69
2016-04-22T06:35:04.225Z,16.79
2016-04-22T06:36:04.228Z,16.84
2016-04-22T06:37:04.231Z,16.72
2016-04-22T06:38:04.233Z,16.89
2016-04-22T06:39:04.236Z,17.23
2016-04-22T06:40:04.238Z,17.74
2016-04-22T06:41:04.241Z,18.01
2016-04-22T06:42:04.260Z,18.31
2016-04-22T06:43:04.262Z,18.53
2016-04-22T06:44:03.359Z,18.73
2016-04-22T06:45:04.283Z,18.84
2016-04-22T06:46:04.286Z,18.96
2016-04-22T06:47:04.288Z,19.09
2016-04-22T06:48:04.276Z,19.09
2016-04-22T06:49:04.294Z,19.22
2016-04-22T06:50:04.297Z,19.3
2016-04-22T06:51:04.315Z,19.24
2016-04-22T06:52:04.302Z,19.29
2016-04-22T06:53:04.304Z,19.15
2016-04-22T06:54:04.324Z,19.16
2016-04-22T06:55:04.309Z,19.02
2016-04-22T06:56:04.328Z,18.78
2016-04-22T06:57:04.362Z,18.53
2016-04-22T06:58:06.037Z,18.31
2016-04-22T06:59:04.368Z,18.23
2016-04-22T07:00:04.371Z,18.05
2016-04-22T07:01:04.389Z,18.05
2016-04-22T07:02:04.360Z,17.82
2016-04-22T07:03:04.378Z,17.79
2016-04-22T07:04:04.381Z,17.65
2016-04-22T07:05:04.384Z,17.54
2016-04-22T07:06:04.402Z,17.48
2016-04-22T07:07:04.389Z,17.41
2016-04-22T07:08:04.439Z,17.52
2016-04-22T07:09:04.410Z,17.51
2016-04-22T07:10:04.413Z,17.45
2016-04-22T07:11:04.416Z,17.49
2016-04-22T07:12:04.435Z,17.54
2016-04-22T07:13:04.438Z,17.67
2016-04-22T07:14:04.455Z,17.86
2016-04-22T07:15:04.427Z,18.08
2016-04-22T07:16:04.429Z,18.19
2016-04-22T07:17:04.448Z,18.19
2016-04-22T07:18:04.451Z,18.38
2016-04-22T07:19:04.453Z,18.52
2016-04-22T07:20:04.596Z,18.6
2016-04-22T07:21:04.474Z,18.66
2016-04-22T07:22:04.351Z,18.74
2016-04-22T07:23:04.526Z,18.7
2016-04-22T07:24:04.498Z,18.75
2016-04-22T07:25:04.484Z,18.62
2016-04-22T07:26:04.503Z,18.65
2016-04-22T07:27:04.506Z,18.63
2016-04-22T07:28:04.523Z,18.53
2016-04-22T07:29:04.526Z,18.22
2016-04-22T07:30:04.529Z,17.87
2016-04-22T07:31:04.532Z,17.72
2016-04-22T07:32:04.567Z,17.57
2016-04-22T07:33:04.553Z,17.33
2016-04-22T07:34:04.524Z,17.15
2016-04-22T07:35:04.543Z,17.04
2016-04-22T07:36:04.545Z,17.01
2016-04-22T07:37:04.580Z,16.94
2016-04-22T07:38:04.583Z,16.84
2016-04-22T07:39:04.569Z,16.86
2016-04-22T07:40:04.697Z,16.87
2016-04-22T07:41:04.591Z,17.04
2016-04-22T07:42:04.593Z,17.15
2016-04-22T07:43:04.611Z,17.33
2016-04-22T07:44:04.442Z,17.36
2016-04-22T07:45:04.601Z,17.59
2016-04-22T07:46:04.604Z,17.71
2016-04-22T07:47:04.638Z,17.78
2016-04-22T07:48:04.609Z,17.95
2016-04-22T07:49:04.471Z,18.13
2016-04-22T07:50:04.630Z,18.22
2016-04-22T07:51:04.507Z,18.15
2016-04-22T07:52:04.635Z,18.03
2016-04-22T07:53:04.654Z,18.03
2016-04-22T07:54:04.656Z,17.87
2016-04-22T07:55:04.659Z,17.89
2016-04-22T07:56:04.646Z,17.95
2016-04-22T07:57:04.681Z,17.95
2016-04-22T07:58:04.699Z,18.18
2016-04-22T07:59:04.671Z,18.16
2016-04-22T08:00:04.673Z,18.15
2016-04-22T08:01:04.692Z,18.18
2016-04-22T08:02:04.709Z,18.23
2016-04-22T08:03:04.696Z,18.18
2016-04-22T08:04:04.715Z,18.18
2016-04-22T08:05:04.718Z,18.16
2016-04-22T08:06:04.719Z,18.19
2016-04-22T08:07:04.739Z,18.2
2016-04-22T08:08:04.725Z,18.23
2016-04-22T08:09:04.713Z,18.26
2016-04-22T08:10:04.716Z,18.28
2016-04-22T08:11:04.733Z,18.55
2016-04-22T08:12:04.767Z,18.5
2016-04-22T08:13:04.770Z,18.49
2016-04-22T08:14:04.772Z,18.31
2016-04-22T08:15:04.775Z,18.29
2016-04-22T08:16:04.778Z,18.2
2016-04-22T08:17:04.765Z,17.97
2016-04-22T08:18:04.768Z,17.82
2016-04-22T08:19:04.771Z,17.71
2016-04-22T08:20:04.805Z,17.72
2016-04-22T08:21:04.807Z,17.64
2016-04-22T08:22:04.810Z,17.59
2016-04-22T08:23:04.797Z,17.57
2016-04-22T08:24:04.799Z,17.38
2016-04-22T08:25:04.802Z,17.19
2016-04-22T08:26:04.821Z,17.05
2016-04-22T08:27:04.839Z,17.08
2016-04-22T08:28:04.873Z,17.3
2016-04-22T08:29:04.829Z,17.57
2016-04-22T08:30:04.862Z,17.79
2016-04-22T08:31:04.818Z,17.85
2016-04-22T08:32:04.884Z,18.07
2016-04-22T08:33:04.839Z,18.34
2016-04-22T08:34:04.873Z,18.83
2016-04-22T08:35:04.861Z,19.3
2016-04-22T08:36:04.894Z,19.66
2016-04-22T08:37:04.960Z,19.99
2016-04-22T08:38:04.947Z,19.85
2016-04-22T08:39:04.746Z,19.48
2016-04-22T08:40:04.155Z,19.18
2016-04-22T08:41:04.892Z,18.89
2016-04-22T08:42:04.911Z,18.81
2016-04-22T08:43:04.898Z,18.62
2016-04-22T08:44:04.916Z,18.38
2016-04-22T08:45:04.919Z,18.28
2016-04-22T08:46:04.938Z,18.13
2016-04-22T08:47:04.924Z,18.2
2016-04-22T08:48:04.786Z,18.23
2016-04-22T08:49:04.946Z,18.31
2016-04-22T08:50:04.948Z,18.23
2016-04-22T08:51:04.951Z,18.2
2016-04-22T08:52:04.953Z,18.03
2016-04-22T08:53:04.988Z,17.94
2016-04-22T08:54:05.005Z,17.9
2016-04-22T08:55:05.008Z,17.92
2016-04-22T08:56:04.980Z,17.76
2016-04-22T08:57:04.982Z,17.86
2016-04-22T08:58:05.000Z,17.92
2016-04-22T08:59:05.018Z,17.95
2016-04-22T09:00:05.022Z,18.03
2016-04-22T09:01:05.024Z,18.05
2016-04-22T09:02:05.027Z,17.95
2016-04-22T09:03:05.045Z,17.87
2016-04-22T09:04:05.032Z,17.78
2016-04-22T09:05:05.035Z,17.78
2016-04-22T09:06:05.053Z,17.78
2016-04-22T09:07:05.056Z,17.64
2016-04-22T09:08:05.059Z,17.59
2016-04-22T09:09:05.062Z,17.63
2016-04-22T09:10:05.048Z,17.6
2016-04-22T09:11:05.051Z,17.56
2016-04-22T09:12:05.132Z,17.45
2016-04-22T09:13:05.072Z,17.52
2016-04-22T09:14:05.105Z,17.52
2016-04-22T09:15:05.077Z,17.57
2016-04-22T09:16:05.081Z,17.6
2016-04-22T09:17:05.114Z,17.76
2016-04-22T09:18:05.133Z,17.78
2016-04-22T09:19:05.104Z,17.83
2016-04-22T09:20:05.122Z,17.89
2016-04-22T09:21:05.125Z,17.92
2016-04-22T09:22:05.127Z,17.9
2016-04-22T09:23:05.115Z,17.97
2016-04-22T09:24:05.140Z,17.9
2016-04-22T09:25:05.220Z,18.03
2016-04-22T09:26:05.208Z,18.13
2016-04-22T09:27:05.148Z,18.28
2016-04-22T09:28:04.994Z,18.43
2016-04-22T09:29:05.154Z,18.44
2016-04-22T09:30:05.172Z,18.53
2016-04-22T09:31:05.158Z,18.58
2016-04-22T09:32:05.178Z,18.77
2016-04-22T09:33:05.180Z,18.88
2016-04-22T09:34:05.166Z,18.84
2016-04-22T09:35:05.186Z,19.02
2016-04-22T09:36:05.189Z,19.14
2016-04-22T09:37:05.191Z,19.12
2016-04-22T09:38:05.210Z,19.12
2016-04-22T09:39:05.197Z,19.36
2016-04-22T09:40:05.215Z,19.34
2016-04-22T09:41:05.217Z,19.44
2016-04-22T09:42:05.220Z,19.4
2016-04-22T09:43:05.239Z,19.48
2016-04-22T09:44:05.241Z,19.47
2016-04-22T09:45:05.228Z,19.31
2016-04-22T09:46:05.247Z,19.36
2016-04-22T09:47:05.250Z,19.48
2016-04-22T09:48:05.253Z,19.51
2016-04-22T09:49:05.255Z,19.62
2016-04-22T09:50:05.242Z,19.64
2016-04-22T09:51:05.260Z,19.59
2016-04-22T09:52:05.279Z,19.55
2016-04-22T09:53:05.281Z,19.69
2016-04-22T09:54:05.268Z,19.69
2016-04-22T09:55:05.287Z,19.7
2016-04-22T09:56:05.290Z,19.85
2016-04-22T09:57:05.293Z,19.76
2016-04-22T09:58:05.326Z,19.84
2016-04-22T09:59:05.298Z,19.74
2016-04-22T10:00:05.315Z,19.69
2016-04-22T10:01:05.334Z,19.63
2016-04-22T10:02:05.321Z,19.69
2016-04-22T10:03:05.339Z,19.71
2016-04-22T10:04:05.327Z,19.54
2016-04-22T10:05:05.344Z,19.3
2016-04-22T10:06:05.332Z,19.11
2016-04-22T10:07:05.334Z,19.08
2016-04-22T10:13:37.993Z,18.92
2016-04-22T10:14:37.980Z,18.99
2016-04-22T10:15:38.030Z,19.08
2016-04-22T10:16:38.002Z,19.08
2016-04-22T10:17:38.004Z,19.07
2016-04-22T10:18:38.023Z,19.02
2016-04-22T10:19:38.026Z,19.07
2016-04-22T10:20:38.091Z,19.02
2016-04-22T10:21:38.031Z,19.08
2016-04-22T10:22:38.034Z,19.24
2016-04-22T10:23:38.020Z,19.22
2016-04-22T10:24:38.054Z,19.19
2016-04-22T10:25:38.042Z,19.19
2016-04-22T10:26:38.059Z,19.24
2016-04-22T10:27:38.047Z,19.26
2016-04-22T10:28:38.050Z,19.21
2016-04-22T10:29:38.068Z,19.29
2016-04-22T10:30:38.133Z,19.3
2016-04-22T10:31:38.104Z,19.3
2016-04-22T10:32:38.076Z,19.51
2016-04-22T10:33:38.064Z,19.47
2016-04-22T10:34:38.098Z,19.44
2016-04-22T10:35:38.084Z,19.54
2016-04-22T10:36:38.102Z,19.51
2016-04-22T10:37:38.105Z,19.51
2016-04-22T10:38:38.123Z,19.62
2016-04-22T10:39:38.111Z,19.67
2016-04-22T10:40:38.144Z,19.77
2016-04-22T10:41:38.131Z,19.99
2016-04-22T10:42:38.134Z,20.06
2016-04-22T10:43:38.137Z,20.11
2016-04-22T10:44:38.155Z,20.16
2016-04-22T10:45:38.189Z,20.13
2016-04-22T10:46:38.144Z,19.99
2016-04-22T10:47:38.147Z,19.95
2016-04-22T10:48:38.166Z,19.96
2016-04-22T10:49:38.168Z,19.96
2016-04-22T10:50:38.155Z,20
2016-04-22T10:51:38.189Z,20.03
2016-04-22T10:52:38.192Z,20.21
2016-04-22T10:53:38.195Z,20.36
2016-04-22T10:54:38.213Z,20.56
2016-04-22T10:55:38.231Z,20.47
2016-04-22T10:56:38.218Z,20.56
2016-04-22T10:57:38.221Z,20.47
2016-04-22T10:58:38.223Z,20.29
2016-04-22T10:59:38.226Z,20.14
2016-04-22T11:00:38.276Z,20.16
2016-04-22T11:01:38.248Z,20.07
2016-04-22T11:02:38.234Z,20.18
2016-04-22T11:03:38.269Z,20.21
2016-04-22T11:04:38.286Z,20.16
2016-04-22T11:05:38.321Z,20.26
2016-04-22T11:06:38.262Z,20.32
2016-04-22T11:07:38.264Z,20.41
2016-04-22T11:08:38.297Z,20.39
2016-04-22T11:09:38.269Z,20.32
2016-04-22T11:10:38.288Z,20.28
2016-04-22T11:11:38.290Z,20.28
2016-04-22T11:12:38.293Z,20.26
2016-04-22T11:13:38.327Z,20.36
2016-04-22T11:14:38.299Z,20.32
2016-04-22T11:15:38.332Z,20.29
2016-04-22T11:16:38.350Z,20.41
2016-04-22T11:17:38.337Z,20.34
2016-04-22T11:18:38.324Z,20.51
2016-04-22T11:19:38.358Z,20.55
2016-04-22T11:20:38.361Z,20.59
2016-04-22T11:21:38.372Z,20.7
2016-04-22T11:22:38.248Z,20.75
2016-04-22T11:23:38.345Z,20.74
2016-04-22T11:24:38.348Z,20.78
2016-04-22T11:25:38.397Z,20.84
2016-04-22T11:26:38.384Z,20.93
2016-04-22T11:27:38.387Z,20.88
2016-04-22T11:28:38.406Z,20.85
2016-04-22T11:29:38.392Z,20.87
2016-04-22T11:30:38.411Z,20.9
2016-04-22T11:31:38.398Z,20.75
2016-04-22T11:32:38.448Z,20.6
2016-04-22T11:33:38.403Z,20.66
2016-04-22T11:34:38.436Z,20.72
2016-04-22T11:35:38.300Z,20.77
2016-04-22T11:36:38.442Z,20.87
2016-04-22T11:37:38.460Z,20.96
2016-04-22T11:38:38.432Z,21.03
2016-04-22T11:39:38.450Z,21.2
2016-04-22T11:40:38.453Z,21.25
2016-04-22T11:41:38.455Z,21.25
2016-04-22T11:42:38.474Z,21
2016-04-22T11:43:38.477Z,20.67
2016-04-22T11:44:38.511Z,20.66
2016-04-22T11:45:38.513Z,20.39
2016-04-22T11:46:38.500Z,20.41
2016-04-22T11:47:38.487Z,20.37
2016-04-22T11:48:38.506Z,20.37
2016-04-22T11:49:38.509Z,20.25
2016-04-22T11:50:38.526Z,20.07
2016-04-22T11:51:38.545Z,20.13
2016-04-22T11:52:38.548Z,20.14
2016-04-22T11:53:38.551Z,20.03
2016-04-22T11:54:38.569Z,20.06
2016-04-22T11:55:38.556Z,20.06
2016-04-22T11:56:38.589Z,20.18
2016-04-22T11:57:38.562Z,20.09
2016-04-22T11:58:38.580Z,20.02
2016-04-22T11:59:38.583Z,20
2016-04-22T12:00:38.679Z,19.94
2016-04-22T12:01:38.572Z,19.91
2016-04-22T12:02:38.622Z,19.95
2016-04-22T12:03:38.594Z,19.92
2016-04-22T12:04:38.627Z,20.02
2016-04-22T12:05:38.630Z,19.94
2016-04-22T12:06:38.633Z,19.82
2016-04-22T12:07:38.650Z,19.7
2016-04-22T12:08:38.638Z,19.67
2016-04-22T12:09:38.656Z,19.62
2016-04-22T12:10:38.705Z,19.7
2016-04-22T12:11:38.646Z,19.73
2016-04-22T12:12:38.648Z,19.76
2016-04-22T12:13:38.666Z,19.77
2016-04-22T12:14:38.669Z,19.85
2016-04-22T12:15:38.735Z,19.99
2016-04-22T12:16:38.675Z,20.03
2016-04-22T12:17:38.678Z,20
2016-04-22T12:18:38.696Z,20.04
2016-04-22T12:19:40.684Z,20.02
2016-04-22T12:20:38.844Z,20.07
2016-04-22T12:21:38.706Z,20.14
2016-04-22T12:22:38.693Z,20.16
2016-04-22T12:23:38.711Z,20.06
2016-04-22T12:24:38.714Z,20.03
2016-04-22T12:25:38.779Z,20.07
2016-04-22T12:26:38.735Z,20.04
2016-04-22T12:27:38.738Z,20.02
2016-04-22T12:28:38.741Z,20.06
2016-04-22T12:29:38.744Z,20.16
2016-04-22T12:30:38.793Z,20.28
2016-04-22T12:31:38.749Z,20.14
2016-04-22T12:32:38.594Z,20.16
2016-04-22T12:33:38.769Z,20.02
2016-04-22T12:34:38.788Z,19.91
2016-04-22T12:35:38.869Z,19.84
2016-04-22T12:36:38.763Z,19.91
2016-04-22T12:37:38.780Z,19.95
2016-04-22T12:38:38.799Z,20.06
2016-04-22T12:39:38.802Z,20.26
2016-04-22T12:40:38.882Z,20.34
2016-04-22T12:41:38.823Z,20.21
2016-04-22T12:42:38.840Z,20.25
2016-04-22T12:43:38.812Z,20.09
2016-04-22T12:44:38.877Z,20.03
2016-04-22T12:45:38.864Z,19.95
2016-04-22T12:46:38.836Z,19.96
2016-04-22T12:47:38.838Z,20
2016-04-22T12:48:38.872Z,19.85
2016-04-22T12:49:38.844Z,19.94
2016-04-22T12:50:38.862Z,19.95
2016-04-22T12:51:38.864Z,19.99
2016-04-22T12:52:38.884Z,20.02
2016-04-22T12:53:38.870Z,20
2016-04-22T12:54:38.919Z,19.88
2016-04-22T12:55:38.985Z,19.89
2016-04-22T12:56:38.941Z,20.02
2016-04-22T12:57:38.897Z,19.92
2016-04-22T12:58:38.931Z,19.79
2016-04-22T12:59:38.918Z,19.88
2016-04-22T13:00:38.983Z,19.84
2016-04-22T13:01:39.360Z,19.91
2016-04-22T13:02:38.957Z,20
2016-04-22T13:03:38.928Z,20.03